Time;durP1;ratioP1;P1;durP2;ratioP2;P2;SDS_P1;SDS_P2;PMS_P1;PMS_P2;Temp;Humidity;BMP_temperature;BMP_pressure;BME280_temperature;BME280_humidity;BME280_pressure;Samples;Min_cycle;Max_cycle;Signal;HPM_P1;HPM_P2
2023/02/12 00:01:00;;;;;;;;;;;;;;;21.88;39.19;103536.13;7254011;19;153950;-58
2023/02/12 00:03:27;;;;;;;;;;;;;;;21.86;38.83;103529.03;7248554;19;154293;-59
2023/02/12 00:05:54;;;;;;;;;;;;;;;21.86;39.32;103534.66;7252884;19;153704;-59
2023/02/12 00:08:21;;;;;;;;;;;;;;;21.86;38.81;103534.66;7252646;19;153650;-59
2023/02/12 00:10:48;;;;;;;;;;;;;;;21.85;39.14;103528.19;7260438;19;155841;-59
2023/02/12 00:13:15;;;;;;;;;;;;;;;21.83;39.48;103532.38;7252386;19;154308;-59
2023/02/12 00:15:42;;;;;;;;;;;;;;;21.83;38.96;103540.81;7252011;19;153989;-58
2023/02/12 00:18:09;;;;;;;;;;;;;;;21.83;39.03;103538.00;7250033;19;152434;-58
2023/02/12 00:20:37;;;;;;;;;;;;;;;21.80;39.07;103530.09;7251875;19;154128;-58
2023/02/12 00:23:04;;;;;;;;;;;;;;;21.78;39.46;103541.59;7247375;19;153742;-59
2023/02/12 00:25:31;;;;;;;;;;;;;;;21.76;39.38;103543.78;7253627;19;154600;-58
2023/02/12 00:27:58;;;;;;;;;;;;;;;21.74;39.77;103535.63;7249398;19;153061;-59
2023/02/12 00:30:25;;;;;;;;;;;;;;;21.71;39.72;103529.66;7252600;19;154317;-59
2023/02/12 00:32:52;;;;;;;;;;;;;;;21.70;39.59;103533.56;7259603;19;154079;-58
2023/02/12 00:35:19;;;;;;;;;;;;;;;21.67;39.69;103537.72;7250268;19;153446;-59
2023/02/12 00:37:46;;;;;;;;;;;;;;;21.67;39.75;103537.72;7252240;19;153360;-58
2023/02/12 00:40:13;;;;;;;;;;;;;;;21.66;40.02;103543.63;7257087;19;153927;-58
2023/02/12 00:42:40;;;;;;;;;;;;;;;21.63;39.98;103530.03;7256423;19;152507;-57
2023/02/12 00:45:07;;;;;;;;;;;;;;;21.61;40.39;103537.91;7260319;19;153545;-58
2023/02/12 00:47:34;;;;;;;;;;;;;;;21.58;40.42;103533.59;7259400;19;154673;-59
2023/02/12 00:50:01;;;;;;;;;;;;;;;21.54;40.66;103537.19;7257266;19;152686;-58
2023/02/12 00:52:28;;;;;;;;;;;;;;;21.52;40.47;103533.78;7255260;19;152933;-58
2023/02/12 00:54:55;;;;;;;;;;;;;;;21.51;40.67;103537.69;7266423;19;153317;-58
2023/02/12 00:57:21;;;;;;;;;;;;;;;21.49;40.72;103534.25;7258413;19;152675;-58
2023/02/12 00:59:48;;;;;;;;;;;;;;;21.45;40.74;103535.88;7258573;19;153211;-58
2023/02/12 01:02:16;;;;;;;;;;;;;;;21.46;40.92;103527.19;7258499;19;154290;-58
2023/02/12 01:04:43;;;;;;;;;;;;;;;21.43;40.48;103535.28;7261500;19;153662;-58
2023/02/12 01:07:10;;;;;;;;;;;;;;;21.40;41.05;103536.63;7258145;19;153089;-58
2023/02/12 01:09:37;;;;;;;;;;;;;;;21.40;40.85;103535.78;7256702;19;153526;-58
2023/02/12 01:12:05;;;;;;;;;;;;;;;21.42;40.85;103533.59;7255692;19;154424;-58
2023/02/12 01:14:32;;;;;;;;;;;;;;;21.39;40.69;103528.47;7261384;19;154823;-58
2023/02/12 01:16:58;;;;;;;;;;;;;;;21.36;40.86;103535.44;7263129;19;154162;-58
2023/02/12 01:19:26;;;;;;;;;;;;;;;21.34;41.15;103531.19;7260606;19;152891;-58
2023/02/12 01:21:53;;;;;;;;;;;;;;;21.32;40.97;103539.00;7256324;19;154041;-59
2023/02/12 01:24:20;;;;;;;;;;;;;;;21.28;40.93;103533.03;7256883;19;152641;-58
2023/02/12 01:26:47;;;;;;;;;;;;;;;21.27;41.28;103532.16;7256839;19;154049;-58
2023/02/12 01:29:14;;;;;;;;;;;;;;;21.25;41.27;103533.53;7259096;19;153416;-58
2023/02/12 01:31:41;;;;;;;;;;;;;;;21.23;41.08;103538.53;7257255;19;153129;-58
2023/02/12 01:34:09;;;;;;;;;;;;;;;21.23;41.18;103536.59;7261805;19;154549;-59
2023/02/12 01:36:36;;;;;;;;;;;;;;;21.20;41.38;103530.63;7255385;19;153286;-59
2023/02/12 01:39:04;;;;;;;;;;;;;;;21.19;41.33;103524.13;7263410;19;152903;-59
2023/02/12 01:41:33;;;;;;;;;;;;;;;21.16;41.66;103519.03;7254283;19;153242;-59
2023/02/12 01:44:03;;;;;;;;;;;;;;;21.15;41.30;103522.94;7255307;19;154613;-58
2023/02/12 01:46:29;;;;;;;;;;;;;;;21.13;41.30;103533.56;7253793;19;152843;-58
2023/02/12 01:48:56;;;;;;;;;;;;;;;21.12;41.30;103539.44;7257080;19;153539;-59
2023/02/12 01:51:24;;;;;;;;;;;;;;;21.11;41.67;103534.91;7254832;19;153740;-58
2023/02/12 01:53:53;;;;;;;;;;;;;;;21.09;41.25;103537.09;7255466;19;153605;-58
2023/02/12 01:56:20;;;;;;;;;;;;;;;21.08;41.88;103529.75;7253990;19;153561;-57
2023/02/12 01:58:49;;;;;;;;;;;;;;;21.06;41.61;103531.97;7264910;19;154385;-57
2023/02/12 02:01:18;;;;;;;;;;;;;;;21.07;41.79;103530.88;7254149;19;153850;-57
2023/02/12 02:03:47;;;;;;;;;;;;;;;21.05;41.75;103525.50;7254841;19;151948;-57
2023/02/12 02:06:16;;;;;;;;;;;;;;;21.04;41.44;103532.22;7254974;19;154286;-58
2023/02/12 02:08:44;;;;;;;;;;;;;;;21.00;41.78;103518.91;7253501;19;153901;-58
2023/02/12 02:16:14;;;;;;;;;;;;;;;20.91;41.32;103521.25;7253589;19;153898;-58
2023/02/12 02:18:46;;;;;;;;;;;;;;;20.92;41.64;103534.22;7255116;19;154969;-58
2023/02/12 02:21:15;;;;;;;;;;;;;;;20.92;41.41;103533.34;7261555;19;154190;-58
2023/02/12 02:23:47;;;;;;;;;;;;;;;20.89;41.57;103531.06;7253070;19;152157;-58
2023/02/12 02:26:17;;;;;;;;;;;;;;;20.87;41.75;103539.72;7254157;19;153779;-58
2023/02/12 02:28:53;;;;;;;;;;;;;;;20.87;41.66;103542.53;7252868;19;154490;-58
2023/02/12 02:31:26;;;;;;;;;;;;;;;20.86;41.58;103538.00;7251650;19;156038;-58
2023/02/12 02:33:53;;;;;;;;;;;;;;;20.83;41.63;103542.19;7254064;19;153440;-58
2023/02/12 02:36:21;;;;;;;;;;;;;;;20.82;41.99;103542.41;7253028;19;153702;-58
2023/02/12 02:38:56;;;;;;;;;;;;;;;20.82;41.90;103534.84;7253385;19;154333;-58
2023/02/12 02:41:24;;;;;;;;;;;;;;;20.82;41.72;103545.22;7252907;19;153898;-58
2023/02/12 02:43:54;;;;;;;;;;;;;;;20.78;41.55;103538.41;7259603;19;153021;-58
2023/02/12 02:46:24;;;;;;;;;;;;;;;20.76;41.64;103541.44;7253961;19;154168;-58
2023/02/12 02:48:57;;;;;;;;;;;;;;;20.77;41.57;103540.34;7253392;19;152948;-58
2023/02/12 02:51:27;;;;;;;;;;;;;;;20.76;41.90;103524.59;7254915;19;153795;-58
2023/02/12 02:53:59;;;;;;;;;;;;;;;20.78;41.82;103530.81;7251471;19;152362;-58
2023/02/12 02:56:27;;;;;;;;;;;;;;;20.74;42.08;103534.38;7251982;19;155284;-58
2023/02/12 02:58:58;;;;;;;;;;;;;;;20.70;41.85;103525.59;7254264;19;155915;-58
2023/02/12 03:01:30;;;;;;;;;;;;;;;20.73;41.90;103529.84;7254477;19;153522;-58
2023/02/12 03:04:02;;;;;;;;;;;;;;;20.73;41.61;103524.22;7250577;19;153379;-57
2023/02/12 03:06:34;;;;;;;;;;;;;;;20.71;42.08;103520.84;7261160;19;152655;-57
2023/02/12 03:09:05;;;;;;;;;;;;;;;20.67;42.23;103512.03;7251297;19;154329;-58
2023/02/12 03:11:33;;;;;;;;;;;;;;;20.69;41.97;103508.97;7250492;19;153726;-58
2023/02/12 03:14:03;;;;;;;;;;;;;;;20.65;42.18;103511.44;7256232;19;154188;-59
2023/02/12 03:16:31;;;;;;;;;;;;;;;20.66;42.02;103518.75;7250595;19;153895;-56
2023/02/12 03:19:04;;;;;;;;;;;;;;;20.64;42.12;103515.34;7251252;19;152764;-58
2023/02/12 03:21:36;;;;;;;;;;;;;;;20.63;42.03;103521.19;7251197;19;155100;-57
2023/02/12 03:24:09;;;;;;;;;;;;;;;20.60;42.27;103518.88;7251044;19;153463;-58
2023/02/12 03:26:42;;;;;;;;;;;;;;;20.58;41.94;103513.50;7251487;19;153953;-58
2023/02/12 03:29:10;;;;;;;;;;;;;;;20.61;42.18;103510.22;7259561;19;153963;-57
2023/02/12 03:31:40;;;;;;;;;;;;;;;20.57;42.45;103516.56;7250863;19;153568;-59
2023/02/12 03:34:10;;;;;;;;;;;;;;;20.56;42.39;103517.66;7253251;19;153418;-58
2023/02/12 03:36:38;;;;;;;;;;;;;;;20.55;42.46;103510.34;7251800;19;153850;-59
2023/02/12 03:39:10;;;;;;;;;;;;;;;20.53;42.08;103516.22;7253318;19;154076;-59
2023/02/12 03:41:40;;;;;;;;;;;;;;;20.53;42.43;103520.97;7252450;19;153458;-58
2023/02/12 03:44:10;;;;;;;;;;;;;;;20.52;42.23;103517.31;7250541;19;153778;-59
2023/02/12 03:46:37;;;;;;;;;;;;;;;20.50;42.09;103513.88;7252263;19;152270;-58
2023/02/12 03:49:09;;;;;;;;;;;;;;;20.50;42.44;103513.88;7251788;19;152444;-58
2023/02/12 03:51:38;;;;;;;;;;;;;;;20.48;42.34;103507.69;7258628;19;153489;-58
2023/02/12 03:54:06;;;;;;;;;;;;;;;20.46;42.41;103509.84;7249448;19;153439;-58
2023/02/12 03:56:40;;;;;;;;;;;;;;;20.45;42.40;103505.34;7249954;19;154014;-58
2023/02/12 03:59:07;;;;;;;;;;;;;;;20.44;42.36;103514.88;7251411;19;153637;-58
2023/02/12 04:01:34;;;;;;;;;;;;;;;20.42;42.01;103517.06;7252613;19;153155;-59
2023/02/12 04:04:04;;;;;;;;;;;;;;;20.38;42.14;103518.66;7250545;19;154089;-59
2023/02/12 04:06:31;;;;;;;;;;;;;;;20.37;42.22;103517.81;7252914;19;153647;-58
2023/02/12 04:09:02;;;;;;;;;;;;;;;20.35;42.14;103517.19;7251420;19;154104;-58
2023/02/12 04:11:33;;;;;;;;;;;;;;;20.35;42.37;103520.00;7256066;19;154468;-58
2023/02/12 04:14:03;;;;;;;;;;;;;;;20.35;42.40;103520.00;7247463;19;155566;-58
2023/02/12 04:16:33;;;;;;;;;;;;;;;20.34;42.06;103512.69;7244645;19;155047;-58
2023/02/12 04:19:04;;;;;;;;;;;;;;;20.31;42.55;103509.50;7252888;19;154013;-58
2023/02/12 04:21:32;;;;;;;;;;;;;;;20.30;42.40;103519.03;7251237;19;153966;-58
2023/02/12 04:23:59;;;;;;;;;;;;;;;20.30;42.46;103514.28;7248502;19;154202;-58
2023/02/12 04:26:33;;;;;;;;;;;;;;;20.29;42.23;103508.88;7249349;19;152596;-58
2023/02/12 04:29:03;;;;;;;;;;;;;;;20.26;42.51;103512.19;7247216;19;153141;-58
2023/02/12 04:31:34;;;;;;;;;;;;;;;20.28;42.10;103507.16;7246967;19;152500;-58
2023/02/12 04:34:04;;;;;;;;;;;;;;;20.26;42.44;103510.19;7257503;19;153595;-58
2023/02/12 04:36:34;;;;;;;;;;;;;;;20.23;42.23;103512.66;7249255;19;154672;-59
2023/02/12 04:39:03;;;;;;;;;;;;;;;20.23;42.12;103509.84;7250236;19;154811;-59
2023/02/12 04:41:30;;;;;;;;;;;;;;;20.22;42.55;103508.13;7249055;19;153496;-57
2023/02/12 04:43:57;;;;;;;;;;;;;;;20.21;42.15;103506.44;7249368;19;154977;-59
2023/02/12 04:46:24;;;;;;;;;;;;;;;20.20;42.13;103513.16;7251369;19;154420;-59
2023/02/12 04:48:53;;;;;;;;;;;;;;;20.17;42.57;103508.03;7251002;19;153169;-59
2023/02/12 04:51:20;;;;;;;;;;;;;;;20.17;42.15;103508.03;7249416;19;154779;-59
2023/02/12 04:53:46;;;;;;;;;;;;;;;20.14;42.58;103514.97;7248683;19;153912;-59
2023/02/12 04:56:13;;;;;;;;;;;;;;;20.15;42.29;103511.06;7256023;19;154450;-59
2023/02/12 04:58:40;;;;;;;;;;;;;;;20.15;42.25;103508.25;7248928;19;153140;-59
2023/02/12 05:01:08;;;;;;;;;;;;;;;20.12;42.38;103511.56;7250321;19;153609;-59
2023/02/12 05:03:36;;;;;;;;;;;;;;;20.12;42.56;103516.31;7248843;19;153672;-59
2023/02/12 05:06:03;;;;;;;;;;;;;;;20.11;42.27;103511.78;7250137;19;154459;-59
2023/02/12 05:08:30;;;;;;;;;;;;;;;20.11;42.61;103511.78;7248546;19;153906;-59
2023/02/12 05:11:02;;;;;;;;;;;;;;;20.06;42.74;103512.53;7247935;19;154074;-60
2023/02/12 05:13:29;;;;;;;;;;;;;;;20.07;42.39;103519.00;7246432;19;153710;-59
2023/02/12 05:15:56;;;;;;;;;;;;;;;20.08;42.60;103512.28;7248443;19;153629;-58
2023/02/12 05:18:23;;;;;;;;;;;;;;;20.07;42.53;103513.38;7256295;19;153220;-58
2023/02/12 05:20:53;;;;;;;;;;;;;;;20.05;42.56;103510.81;7248474;19;154341;-59
2023/02/12 05:23:20;;;;;;;;;;;;;;;20.04;42.72;103516.66;7246134;19;152667;-58
2023/02/12 05:25:47;;;;;;;;;;;;;;;20.03;42.69;103510.22;7249559;19;153913;-58
2023/02/12 05:28:14;;;;;;;;;;;;;;;20.04;42.32;103497.00;7255638;19;153300;-58
2023/02/12 05:30:41;;;;;;;;;;;;;;;20.02;42.43;103507.63;7255081;19;153313;-58
2023/02/12 05:33:07;;;;;;;;;;;;;;;20.02;42.34;103507.63;7255929;19;154790;-57
2023/02/12 05:35:34;;;;;;;;;;;;;;;20.00;42.73;103502.25;7255713;19;152868;-58
2023/02/12 05:38:01;;;;;;;;;;;;;;;19.98;42.66;103499.72;7254365;19;154826;-58
2023/02/12 05:40:28;;;;;;;;;;;;;;;19.95;42.67;103496.50;7264052;19;153638;-57
2023/02/12 05:42:54;;;;;;;;;;;;;;;19.97;42.40;103497.13;7252783;19;152447;-58
2023/02/12 05:45:26;;;;;;;;;;;;;;;19.94;42.46;103500.44;7255507;19;151941;-60
2023/02/12 05:47:54;;;;;;;;;;;;;;;19.94;42.83;103501.28;7256550;19;153971;-58
2023/02/12 05:50:21;;;;;;;;;;;;;;;19.94;42.60;103498.47;7256427;19;152543;-58
2023/02/12 05:52:47;;;;;;;;;;;;;;;19.91;42.76;103493.34;7253568;19;152857;-58
2023/02/12 05:55:14;;;;;;;;;;;;;;;19.88;42.86;103495.78;7256101;19;154811;-58
2023/02/12 05:57:41;;;;;;;;;;;;;;;19.91;42.49;103500.91;7252868;19;154520;-58
2023/02/12 06:00:09;;;;;;;;;;;;;;;19.89;42.40;103498.38;7263407;19;154091;-59
2023/02/12 06:02:36;;;;;;;;;;;;;;;19.90;42.29;103499.19;7254127;19;153607;-59
2023/02/12 06:05:03;;;;;;;;;;;;;;;19.89;42.62;103491.91;7255279;19;154756;-59
2023/02/12 06:07:30;;;;;;;;;;;;;;;19.85;42.59;103501.91;7254717;19;152555;-58
2023/02/12 06:09:58;;;;;;;;;;;;;;;19.84;42.59;103502.97;7253945;19;154115;-58
2023/02/12 06:12:24;;;;;;;;;;;;;;;19.83;42.55;103502.13;7253625;19;153957;-58
2023/02/12 06:14:51;;;;;;;;;;;;;;;19.81;42.92;103504.31;7252550;19;153581;-58
2023/02/12 06:17:18;;;;;;;;;;;;;;;19.80;42.95;103501.75;7254310;19;155071;-58
2023/02/12 06:19:45;;;;;;;;;;;;;;;19.79;42.87;103506.50;7255548;19;155649;-58
2023/02/12 06:22:12;;;;;;;;;;;;;;;19.80;42.73;103505.44;7258689;19;153056;-58
2023/02/12 06:24:39;;;;;;;;;;;;;;;19.77;42.65;103507.84;7252949;19;152438;-58
2023/02/12 06:27:05;;;;;;;;;;;;;;;19.77;42.87;103496.59;7252857;19;153457;-58
2023/02/12 06:29:32;;;;;;;;;;;;;;;19.76;42.94;103497.72;7252521;19;153132;-58
2023/02/12 06:31:59;;;;;;;;;;;;;;;19.76;42.86;103490.16;7254008;19;153854;-58
2023/02/12 06:34:26;;;;;;;;;;;;;;;19.75;42.66;103498.81;7252980;19;152466;-58
2023/02/12 06:36:53;;;;;;;;;;;;;;;19.75;42.59;103499.69;7253154;19;154010;-58
2023/02/12 06:39:20;;;;;;;;;;;;;;;19.74;43.00;103494.31;7254479;19;153257;-58
2023/02/12 06:41:47;;;;;;;;;;;;;;;19.73;42.91;103498.19;7251272;19;153872;-58
2023/02/12 06:44:19;;;;;;;;;;;;;;;19.73;42.85;103503.81;7260627;19;154540;-58
2023/02/12 06:46:46;;;;;;;;;;;;;;;19.75;42.70;103504.44;7253689;19;154837;-58
2023/02/12 06:49:15;;;;;;;;;;;;;;;19.70;42.77;103501.50;7255821;19;153635;-58
2023/02/12 06:51:42;;;;;;;;;;;;;;;19.70;42.85;103496.75;7255902;19;153118;-59
2023/02/12 06:54:11;;;;;;;;;;;;;;;19.70;43.12;103488.31;7250397;19;154103;-58
2023/02/12 06:56:38;;;;;;;;;;;;;;;19.69;42.84;103497.81;7252673;19;153207;-59
2023/02/12 06:59:05;;;;;;;;;;;;;;;19.69;43.01;103500.63;7253314;19;152931;-58
2023/02/12 07:01:32;;;;;;;;;;;;;;;19.69;43.03;103500.63;7250594;19;154247;-58
2023/02/12 07:04:02;;;;;;;;;;;;;;;19.68;42.78;103498.91;7252023;19;152626;-58
2023/02/12 07:06:29;;;;;;;;;;;;;;;19.65;42.86;103498.56;7259683;19;152870;-58
2023/02/12 07:08:57;;;;;;;;;;;;;;;19.66;42.88;103501.13;7250970;19;153237;-58
2023/02/12 07:11:26;;;;;;;;;;;;;;;19.65;43.13;103504.16;7251531;19;152533;-58
2023/02/12 07:13:53;;;;;;;;;;;;;;;19.66;42.92;103501.13;7252038;19;154001;-57
2023/02/12 07:16:23;;;;;;;;;;;;;;;19.64;42.86;103508.06;7251616;19;152443;-62
2023/02/12 07:18:50;;;;;;;;;;;;;;;19.61;43.35;103512.19;7253222;19;152129;-58
2023/02/12 07:21:17;;;;;;;;;;;;;;;19.68;42.99;103514.88;7252295;19;153162;-57
2023/02/12 07:23:46;;;;;;;;;;;;;;;19.67;43.49;103518.81;7251144;19;152806;-57
2023/02/12 07:26:17;;;;;;;;;;;;;;;19.76;43.50;103518.19;7251329;19;152794;-58
2023/02/12 07:28:44;;;;;;;;;;;;;;;19.82;43.79;103519.19;7259589;19;154088;-57
2023/02/12 07:31:12;;;;;;;;;;;;;;;19.85;44.10;103522.34;7252033;19;152725;-58
2023/02/12 07:33:40;;;;;;;;;;;;;;;19.90;43.85;103518.84;7250025;19;153920;-57
2023/02/12 07:36:08;;;;;;;;;;;;;;;19.94;44.06;103520.91;7250679;19;152967;-57
2023/02/12 07:38:38;;;;;;;;;;;;;;;20.00;43.73;103521.91;7250517;19;154699;-58
2023/02/12 07:41:10;;;;;;;;;;;;;;;20.04;43.77;103522.25;7252499;19;154357;-57
2023/02/12 07:43:38;;;;;;;;;;;;;;;20.09;44.24;103530.81;7251044;19;154241;-57
2023/02/12 07:46:06;;;;;;;;;;;;;;;20.13;44.09;103524.47;7251726;19;154415;-57
2023/02/12 07:48:33;;;;;;;;;;;;;;;20.19;43.81;103519.84;7251274;19;154372;-57
2023/02/12 07:51:03;;;;;;;;;;;;;;;20.24;43.91;103525.59;7256992;19;153676;-57
2023/02/12 07:53:30;;;;;;;;;;;;;;;20.31;43.72;103526.34;7249843;19;155097;-58
2023/02/12 07:56:00;;;;;;;;;;;;;;;20.37;43.81;103528.19;7251111;19;153951;-58
2023/02/12 07:58:27;;;;;;;;;;;;;;;20.41;43.81;103533.06;7250709;19;154418;-57
2023/02/12 08:00:54;;;;;;;;;;;;;;;20.48;43.64;103530.16;7252606;19;153164;-57
2023/02/12 08:03:20;;;;;;;;;;;;;;;20.56;43.22;103526.09;7250504;19;154027;-59
2023/02/12 08:05:52;;;;;;;;;;;;;;;20.61;43.33;103527.06;7251946;19;154414;-58
2023/02/12 08:08:20;;;;;;;;;;;;;;;20.67;42.93;103530.84;7247867;19;152928;-58
2023/02/12 08:10:47;;;;;;;;;;;;;;;20.72;42.68;103531.81;7257231;19;154917;-58
2023/02/12 08:13:14;;;;;;;;;;;;;;;20.75;42.76;103528.53;7250727;19;153341;-59
2023/02/12 08:15:41;;;;;;;;;;;;;;;20.82;42.83;103536.81;7248213;19;154286;-58
2023/02/12 08:18:08;;;;;;;;;;;;;;;20.85;42.30;103523.09;7251742;19;153936;-58
2023/02/12 08:20:34;;;;;;;;;;;;;;;20.90;42.39;103527.97;7249547;19;153210;-58
2023/02/12 08:23:01;;;;;;;;;;;;;;;20.94;42.23;103529.19;7250777;19;155139;-58
2023/02/12 08:25:28;;;;;;;;;;;;;;;20.98;42.10;103532.38;7252353;19;153971;-58
2023/02/12 08:27:55;;;;;;;;;;;;;;;21.01;41.86;103531.88;7250513;19;153319;-58
2023/02/12 08:30:22;;;;;;;;;;;;;;;21.04;42.13;103528.53;7248595;19;153728;-58
2023/02/12 08:32:51;;;;;;;;;;;;;;;21.06;42.00;103527.22;7258460;19;153908;-58
2023/02/12 08:35:18;;;;;;;;;;;;;;;21.08;41.83;103526.94;7248379;19;152853;-58
2023/02/12 08:37:44;;;;;;;;;;;;;;;21.11;41.76;103537.72;7249656;19;152945;-58
2023/02/12 08:40:12;;;;;;;;;;;;;;;21.12;41.93;103545.88;7251078;19;152650;-58
2023/02/12 08:42:39;;;;;;;;;;;;;;;21.14;41.52;103543.72;7248463;19;153282;-58
2023/02/12 08:45:07;;;;;;;;;;;;;;;21.17;41.49;103542.34;7248369;19;153695;-58
2023/02/12 08:47:33;;;;;;;;;;;;;;;21.18;41.45;103538.44;7249372;19;153813;-59
2023/02/12 08:50:03;;;;;;;;;;;;;;;21.20;41.90;103530.63;7248925;19;154430;-58
2023/02/12 08:52:29;;;;;;;;;;;;;;;21.19;41.40;103532.56;7249554;19;153787;-58
2023/02/12 08:54:56;;;;;;;;;;;;;;;21.21;41.70;103535.97;7254385;19;153858;-58
2023/02/12 08:57:23;;;;;;;;;;;;;;;21.23;41.58;103547.84;7248512;19;152971;-58
2023/02/12 08:59:49;;;;;;;;;;;;;;;21.24;41.44;103548.69;7249051;19;154843;-58
2023/02/12 09:02:16;;;;;;;;;;;;;;;21.25;41.72;103550.41;7253392;19;153806;-59
2023/02/12 09:04:44;;;;;;;;;;;;;;;21.24;41.40;103545.88;7255784;19;154059;-58
2023/02/12 09:07:11;;;;;;;;;;;;;;;21.25;41.76;103547.59;7255407;19;153042;-58
2023/02/12 09:09:38;;;;;;;;;;;;;;;21.26;41.64;103544.50;7255601;19;154915;-58
2023/02/12 09:12:04;;;;;;;;;;;;;;;21.26;41.60;103552.09;7255530;19;153819;-59
2023/02/12 09:14:31;;;;;;;;;;;;;;;21.28;41.33;103550.75;7201396;19;160960;-58
2023/02/12 09:16:58;;;;;;;;;;;;;;;21.24;40.94;103545.88;7257960;19;153470;-57
2023/02/12 09:19:25;;;;;;;;;;;;;;;21.23;41.58;103547.84;7256608;19;153419;-59
2023/02/12 09:21:52;;;;;;;;;;;;;;;21.25;41.32;103550.41;7251400;19;153999;-58
2023/02/12 09:24:22;;;;;;;;;;;;;;;21.23;40.99;103550.66;7254579;19;154411;-58
2023/02/12 09:26:48;;;;;;;;;;;;;;;21.24;41.46;103557.13;7254235;19;152988;-58
2023/02/12 09:29:18;;;;;;;;;;;;;;;21.25;41.37;103553.22;7254787;19;154626;-58
2023/02/12 09:31:45;;;;;;;;;;;;;;;21.23;41.25;103552.59;7255763;19;153506;-58
2023/02/12 09:34:12;;;;;;;;;;;;;;;21.21;41.19;103557.66;7256611;19;154529;-58
2023/02/12 09:36:38;;;;;;;;;;;;;;;21.20;41.53;103555.94;7256871;19;154511;-58
2023/02/12 09:39:05;;;;;;;;;;;;;;;21.20;41.67;103561.56;7265161;19;153554;-61
2023/02/12 09:41:33;;;;;;;;;;;;;;;21.21;42.01;103558.47;7252581;19;152631;-59
2023/02/12 09:44:03;;;;;;;;;;;;;;;21.19;41.46;103560.69;7247816;19;153856;-58
2023/02/12 09:46:31;;;;;;;;;;;;;;;20.99;40.56;103574.25;7254675;19;154243;-59
2023/02/12 09:49:02;;;;;;;;;;;;;;;20.57;39.04;103564.31;7248804;19;154136;-58
2023/02/12 09:51:30;;;;;;;;;;;;;;;20.27;39.26;103562.44;7220389;19;160200;-58
2023/02/12 09:54:01;;;;;;;;;;;;;;;20.22;38.59;103558.66;7245823;19;153547;-58
2023/02/12 09:56:29;;;;;;;;;;;;;;;19.94;39.10;103554.59;7248442;19;156028;-58
2023/02/12 09:59:02;;;;;;;;;;;;;;;19.88;39.38;103549.97;7243146;19;152462;-58
2023/02/12 10:02:00;;;;;;;;;;;;;;;20.14;39.72;103548.66;7246091;19;155016;-58
2023/02/12 10:04:27;;;;;;;;;;;;;;;20.28;39.74;103561.34;7243104;19;155163;-57
2023/02/12 10:06:58;;;;;;;;;;;;;;;20.31;39.77;103549.66;7254025;19;152524;-58
2023/02/12 10:09:25;;;;;;;;;;;;;;;20.35;39.96;103545.25;7255631;19;153031;-58
2023/02/12 10:11:55;;;;;;;;;;;;;;;20.40;40.10;103547.34;7253161;19;154216;-57
2023/02/12 10:14:25;;;;;;;;;;;;;;;20.46;39.98;103551.97;7254518;19;155362;-58
2023/02/12 10:16:55;;;;;;;;;;;;;;;20.51;39.77;103548.44;7247084;19;154933;-58
2023/02/12 10:19:22;;;;;;;;;;;;;;;20.55;40.17;103552.47;7257806;19;153167;-57
2023/02/12 10:21:49;;;;;;;;;;;;;;;20.60;39.69;103561.00;7258888;19;153585;-58
2023/02/12 10:24:19;;;;;;;;;;;;;;;20.64;39.73;103559.41;7253444;19;152662;-58
2023/02/12 10:26:48;;;;;;;;;;;;;;;20.66;40.14;103563.72;7254946;19;153840;-58
2023/02/12 10:29:21;;;;;;;;;;;;;;;20.70;39.81;103556.50;7253253;19;154377;-57
2023/02/12 10:31:51;;;;;;;;;;;;;;;20.73;40.10;103558.81;7252864;19;153817;-57
2023/02/12 10:34:21;;;;;;;;;;;;;;;20.76;39.67;103560.25;7252686;19;153954;-58
2023/02/12 10:36:49;;;;;;;;;;;;;;;20.79;39.54;103559.78;7250754;19;153409;-58
2023/02/12 10:39:19;;;;;;;;;;;;;;;20.80;39.49;103553.91;7253042;19;154242;-58
2023/02/12 10:41:48;;;;;;;;;;;;;;;20.84;39.48;103551.47;7252695;19;154397;-57
2023/02/12 10:44:15;;;;;;;;;;;;;;;20.85;39.17;103564.41;7258913;19;154882;-58
2023/02/12 10:46:42;;;;;;;;;;;;;;;20.89;39.36;103562.81;7252968;19;154121;-57
2023/02/12 10:49:12;;;;;;;;;;;;;;;20.92;39.14;103555.84;7253440;19;153940;-58
2023/02/12 10:51:42;;;;;;;;;;;;;;;20.94;39.03;103565.72;7251967;19;152894;-58
2023/02/12 10:54:12;;;;;;;;;;;;;;;20.96;38.94;103559.88;7252745;19;153883;-58
2023/02/12 10:56:38;;;;;;;;;;;;;;;20.97;39.03;103558.75;7248914;19;153053;-58
2023/02/12 10:59:20;;;;;;;;;;;;;;;20.98;38.88;103554.88;7253081;19;153070;-58
2023/02/12 11:01:47;;;;;;;;;;;;;;;20.99;38.93;103560.22;7253343;19;153326;-57
2023/02/12 11:04:19;;;;;;;;;;;;;;;20.98;38.76;103554.88;7253201;19;153785;-58
2023/02/12 11:06:49;;;;;;;;;;;;;;;20.97;39.16;103554.00;7260107;19;154198;-58
2023/02/12 11:09:27;;;;;;;;;;;;;;;20.98;38.77;103558.53;7252248;19;153020;-57
2023/02/12 11:11:54;;;;;;;;;;;;;;;21.00;39.05;103558.25;7251208;19;153088;-57
2023/02/12 11:14:21;;;;;;;;;;;;;;;20.99;38.92;103550.94;7252983;19;152152;-58
2023/02/12 11:16:52;;;;;;;;;;;;;;;21.00;38.62;103559.13;7249854;19;154789;-57
2023/02/12 11:19:22;;;;;;;;;;;;;;;20.99;38.62;103548.13;7253213;19;153598;-58
2023/02/12 11:22:05;;;;;;;;;;;;;;;21.00;38.54;103552.63;7252197;19;153400;-57
2023/02/12 11:24:33;;;;;;;;;;;;;;;20.99;38.72;103542.50;7250583;19;156406;-57
2023/02/12 11:27:08;;;;;;;;;;;;;;;20.99;38.69;103543.34;7252037;19;152485;-57
2023/02/12 11:29:35;;;;;;;;;;;;;;;20.99;38.50;103540.53;7259589;19;154721;-58
2023/02/12 11:32:04;;;;;;;;;;;;;;;20.98;38.85;103540.81;7251545;19;153499;-58
2023/02/12 11:34:31;;;;;;;;;;;;;;;20.96;38.81;103537.38;7254280;19;153606;-58
2023/02/12 11:37:00;;;;;;;;;;;;;;;20.98;38.24;103544.47;7248372;19;154068;-57
2023/02/12 11:39:31;;;;;;;;;;;;;;;20.96;38.71;103540.19;7252489;19;154126;-57
2023/02/12 11:41:58;;;;;;;;;;;;;;;20.94;38.37;103534.81;7251515;19;153169;-57
2023/02/12 11:44:27;;;;;;;;;;;;;;;20.90;38.63;103536.41;7250513;19;153277;-57
2023/02/12 11:47:02;;;;;;;;;;;;;;;20.93;38.56;103535.94;7251071;19;154373;-58
2023/02/12 11:49:32;;;;;;;;;;;;;;;20.92;38.14;103530.56;7251606;19;151979;-57
2023/02/12 11:52:00;;;;;;;;;;;;;;;20.90;38.25;103535.56;7256008;19;154374;-58
2023/02/12 11:54:33;;;;;;;;;;;;;;;20.88;38.19;103541.44;7250333;19;152535;-57
2023/02/12 11:57:00;;;;;;;;;;;;;;;20.85;38.19;103537.16;7243717;19;153800;-58
2023/02/12 11:59:30;;;;;;;;;;;;;;;20.84;38.20;103529.84;7243533;19;155278;-58
2023/02/12 12:02:00;;;;;;;;;;;;;;;20.84;38.63;103527.03;7249280;19;154094;-57
2023/02/12 12:04:32;;;;;;;;;;;;;;;20.81;38.50;103516.28;7251973;19;153607;-57
2023/02/12 12:07:05;;;;;;;;;;;;;;;20.77;38.68;103522.63;7251344;19;153211;-58
2023/02/12 12:09:38;;;;;;;;;;;;;;;20.72;38.56;103519.72;7253081;19;152741;-57
2023/02/12 12:12:08;;;;;;;;;;;;;;;20.72;38.84;103529.00;7248455;19;154324;-58
2023/02/12 12:19:51;;;;;;;;;;;;;;;20.67;38.89;103526.06;7258255;19;153845;-57
2023/02/12 12:20:05;;;;;;;;;;;;;;;20.64;39.18;103523.75;7245054;19;153542;-57
2023/02/12 12:22:36;;;;;;;;;;;;;;;20.59;38.86;103522.78;7248298;19;153565;-57
2023/02/12 12:25:06;;;;;;;;;;;;;;;20.55;39.20;103515.97;7247367;19;153692;-57
2023/02/12 12:30:17;;;;;;;;;;;;;;;20.51;39.04;103512.78;7246645;19;153776;-58
2023/02/12 12:32:46;;;;;;;;;;;;;;;20.52;39.33;103517.31;7249366;19;152761;-58
2023/02/12 12:35:17;;;;;;;;;;;;;;;20.45;39.25;103510.09;7260141;19;154693;-57
2023/02/12 12:37:45;;;;;;;;;;;;;;;20.43;39.37;103510.38;7261549;19;153129;-57
2023/02/12 12:40:13;;;;;;;;;;;;;;;20.44;39.15;103503.66;7259321;19;153954;-58
2023/02/12 12:42:49;;;;;;;;;;;;;;;20.43;39.66;103499.13;7252406;19;155923;-58
2023/02/12 12:45:22;;;;;;;;;;;;;;;20.42;39.45;103495.47;7255883;19;154006;-57